Terminal Aerodrome Forecast
Issued by NWS Goodland, KS

Home | Current Version | Previous Version | Text Only | Print | Product List | Glossary On
Versions: 1 2 3 4 5 6 7 8 9 10 11 12 13 14 15 16 17 18
273
FTUS43 KGLD 070821 AAA
TAFGLD
TAF AMD
KGLD 070821Z 0708/0806 08010KT 6SM -SN OVC080
      TEMPO 0710/0712 06010G18KT 1 1/2SM -SN BLSN BKN007
     FM071200 04012KT 2SM -SN OVC015
     FM071500 03012KT 6SM -SN BKN015
     FM072000 35008KT P6SM BKN030
     FM080200 32011KT P6SM SCT050=

USA.gov is the U.S. government's official web portal to all federal, state and local government web resources and services.